createdAt,value
2023-05-09T00:01:14.707Z,55.56
2023-05-09T00:03:44.573Z,55.26
2023-05-09T00:06:11.881Z,55.42
2023-05-09T00:08:38.662Z,55.39
2023-05-09T00:11:05.672Z,55.37
2023-05-09T00:13:33.012Z,55.48
2023-05-09T00:16:02.279Z,55.63
2023-05-09T00:18:31.395Z,55.85
2023-05-09T00:20:58.753Z,55.99
2023-05-09T00:23:25.534Z,56.00
2023-05-09T00:25:52.176Z,55.94
2023-05-09T00:28:20.125Z,56.40
2023-05-09T00:33:33.041Z,56.03
2023-05-09T00:35:59.884Z,56.26
2023-05-09T00:38:26.623Z,56.35
2023-05-09T00:40:53.715Z,56.54
2023-05-09T00:43:21.503Z,56.64
2023-05-09T00:45:50.120Z,56.79
2023-05-09T00:48:17.119Z,56.71
2023-05-09T00:50:44.106Z,56.50
2023-05-09T00:53:11.018Z,57.19
2023-05-09T00:55:40.304Z,57.40
2023-05-09T00:58:07.021Z,56.81
2023-05-09T01:00:33.757Z,56.97
2023-05-09T01:03:00.576Z,57.28
2023-05-09T01:05:38.365Z,57.60
2023-05-09T01:08:18.196Z,57.80
2023-05-09T01:11:04.121Z,57.39
2023-05-09T01:14:01.359Z,57.74
2023-05-09T01:16:57.587Z,58.02
2023-05-09T01:19:58.408Z,57.63
2023-05-09T01:22:32.142Z,57.28
2023-05-09T01:25:26.886Z,57.80
2023-05-09T01:28:14.577Z,57.58
2023-05-09T01:30:46.410Z,57.65
2023-05-09T01:33:18.415Z,57.43
2023-05-09T01:35:50.073Z,57.44
2023-05-09T01:38:20.083Z,57.96
2023-05-09T01:40:53.121Z,58.47
2023-05-09T01:43:22.158Z,58.45
2023-05-09T01:45:51.714Z,58.12
2023-05-09T01:48:18.858Z,58.27
2023-05-09T01:50:46.571Z,57.71
2023-05-09T01:53:15.613Z,58.19
2023-05-09T01:55:44.224Z,58.44
2023-05-09T01:58:11.696Z,58.22
2023-05-09T02:00:39.091Z,58.09
2023-05-09T02:03:06.353Z,58.00
2023-05-09T02:05:34.972Z,58.35
2023-05-09T02:08:01.707Z,58.25
2023-05-09T02:10:29.499Z,58.45
2023-05-09T02:12:57.622Z,58.07
2023-05-09T02:15:26.079Z,58.34
2023-05-09T02:17:53.575Z,58.36
2023-05-09T02:20:20.647Z,59.10
2023-05-09T02:22:48.079Z,58.75
2023-05-09T02:25:18.897Z,58.91
2023-05-09T02:27:47.092Z,58.70
2023-05-09T02:30:25.492Z,58.54
2023-05-09T02:32:59.110Z,59.08
2023-05-09T02:35:28.912Z,58.92
2023-05-09T02:37:57.412Z,58.92
2023-05-09T02:40:26.419Z,58.87
2023-05-09T02:42:53.138Z,59.03
2023-05-09T02:45:19.983Z,58.95
2023-05-09T02:47:47.133Z,59.46
2023-05-09T02:50:14.020Z,59.36
2023-05-09T02:52:41.140Z,59.14
2023-05-09T02:55:08.510Z,59.07
2023-05-09T02:57:35.507Z,59.24
2023-05-09T03:00:02.435Z,59.62
2023-05-09T03:02:29.423Z,60.11
2023-05-09T03:04:56.653Z,59.49
2023-05-09T03:07:23.441Z,59.73
2023-05-09T03:09:50.177Z,59.77
2023-05-09T03:12:16.927Z,59.40
2023-05-09T03:14:44.874Z,59.65
2023-05-09T03:17:11.525Z,59.85
2023-05-09T03:19:38.249Z,59.70
2023-05-09T03:22:04.976Z,59.80
2023-05-09T03:24:31.890Z,59.97
2023-05-09T03:26:58.659Z,59.60
2023-05-09T03:29:26.427Z,59.32
2023-05-09T03:31:53.231Z,60.06
2023-05-09T03:34:20.304Z,59.82
2023-05-09T03:36:47.004Z,60.23
2023-05-09T03:39:13.723Z,59.85
2023-05-09T03:41:40.666Z,59.80
2023-05-09T03:44:07.716Z,60.01
2023-05-09T03:46:35.051Z,59.85
2023-05-09T03:49:01.857Z,60.03
2023-05-09T03:51:28.616Z,60.43
2023-05-09T03:53:56.359Z,60.12
2023-05-09T03:56:23.170Z,60.64
2023-05-09T03:58:49.945Z,60.39
2023-05-09T04:01:17.940Z,60.35
2023-05-09T04:03:44.792Z,60.84
2023-05-09T04:06:12.817Z,60.66
2023-05-09T04:08:39.552Z,60.21
2023-05-09T04:11:06.409Z,60.30
2023-05-09T04:13:35.789Z,60.58
2023-05-09T04:16:02.817Z,60.69
2023-05-09T04:18:31.248Z,60.80
2023-05-09T04:20:58.141Z,60.91
2023-05-09T04:23:24.907Z,60.30
2023-05-09T04:25:52.211Z,60.16
2023-05-09T04:28:18.924Z,60.27
2023-05-09T04:30:46.750Z,59.97
2023-05-09T04:33:13.505Z,60.16
2023-05-09T04:35:41.326Z,59.77
2023-05-09T04:38:08.238Z,59.79
2023-05-09T04:40:35.068Z,59.59
2023-05-09T04:43:01.800Z,59.40
2023-05-09T04:45:28.574Z,59.66
2023-05-09T04:47:55.272Z,59.35
2023-05-09T04:50:22.165Z,59.18
2023-05-09T04:52:48.952Z,59.01
2023-05-09T04:55:16.147Z,58.68
2023-05-09T04:57:44.180Z,58.76
2023-05-09T05:00:12.056Z,58.50
2023-05-09T05:02:39.090Z,58.23
2023-05-09T05:05:12.150Z,58.23
2023-05-09T05:07:39.670Z,58.16
2023-05-09T05:10:06.882Z,58.14
2023-05-09T05:12:33.646Z,57.64
2023-05-09T05:15:00.708Z,57.38
2023-05-09T05:17:29.712Z,57.50
2023-05-09T05:19:56.563Z,57.28
2023-05-09T05:22:23.683Z,57.03
2023-05-09T05:24:50.438Z,57.16
2023-05-09T05:27:17.153Z,56.35
2023-05-09T05:29:44.264Z,55.82
2023-05-09T05:32:11.157Z,56.55
2023-05-09T05:34:39.544Z,55.83
2023-05-09T05:37:06.416Z,55.85
2023-05-09T05:39:33.174Z,55.54
2023-05-09T05:42:01.489Z,55.47
2023-05-09T05:44:28.197Z,55.21
2023-05-09T05:46:56.207Z,54.86
2023-05-09T05:49:25.173Z,55.12
2023-05-09T05:51:51.897Z,54.63
2023-05-09T05:54:19.609Z,54.52
2023-05-09T05:56:46.309Z,54.41
2023-05-09T05:59:13.619Z,53.83
2023-05-09T06:01:40.895Z,54.42
2023-05-09T06:04:08.048Z,54.01
2023-05-09T06:06:34.872Z,53.35
2023-05-09T06:09:05.268Z,52.15
2023-05-09T06:11:38.505Z,49.59
2023-05-09T06:14:06.763Z,46.42
2023-05-09T06:16:33.628Z,48.72
2023-05-09T06:19:00.530Z,44.17
2023-05-09T06:21:27.370Z,43.24
2023-05-09T06:24:09.793Z,38.19
2023-05-09T06:26:37.183Z,37.06
2023-05-09T06:29:06.387Z,34.22
2023-05-09T06:31:38.359Z,32.87
2023-05-09T06:34:06.355Z,32.74
2023-05-09T06:36:33.619Z,31.43
2023-05-09T06:39:01.048Z,31.09
2023-05-09T06:41:27.866Z,30.29
2023-05-09T06:43:54.536Z,29.64
2023-05-09T06:46:21.372Z,29.33
2023-05-09T06:48:48.509Z,29.20
2023-05-09T06:51:15.264Z,27.82
2023-05-09T06:53:42.215Z,28.67
2023-05-09T06:56:09.967Z,28.43
2023-05-09T06:58:37.924Z,26.73
2023-05-09T07:01:04.821Z,26.69
2023-05-09T07:03:34.533Z,25.34
2023-05-09T07:06:04.029Z,24.78
2023-05-09T07:08:31.715Z,23.36
2023-05-09T07:10:58.417Z,22.15
2023-05-09T07:13:25.193Z,22.52
2023-05-09T07:15:52.018Z,23.38
2023-05-09T07:18:18.785Z,23.70
2023-05-09T07:20:45.976Z,24.22
2023-05-09T07:23:12.826Z,23.70
2023-05-09T07:25:39.560Z,24.02
2023-05-09T07:28:06.950Z,24.79
2023-05-09T07:30:33.712Z,25.45
2023-05-09T07:33:01.539Z,25.22
2023-05-09T07:35:28.568Z,24.80
2023-05-09T07:37:55.435Z,24.81
2023-05-09T07:40:22.161Z,25.31
2023-05-09T07:42:50.159Z,25.19
2023-05-09T07:45:17.948Z,25.43
2023-05-09T07:47:45.718Z,24.78
2023-05-09T07:50:12.551Z,23.62
2023-05-09T07:52:39.232Z,23.07
2023-05-09T07:55:06.774Z,22.59
2023-05-09T07:57:33.530Z,21.93
2023-05-09T08:00:00.292Z,21.64
2023-05-09T08:02:27.157Z,21.30
2023-05-09T08:04:55.148Z,20.34
2023-05-09T08:07:21.837Z,20.55
2023-05-09T08:09:48.566Z,20.29
2023-05-09T08:12:15.285Z,20.71
2023-05-09T08:14:41.999Z,21.31
2023-05-09T08:17:08.777Z,20.56
2023-05-09T08:19:35.532Z,20.96
2023-05-09T08:22:02.237Z,19.67
2023-05-09T08:24:29.516Z,19.85
2023-05-09T08:26:56.235Z,19.80
2023-05-09T08:29:23.009Z,20.28
2023-05-09T08:31:49.846Z,20.14
2023-05-09T08:34:16.598Z,19.54
2023-05-09T08:36:46.789Z,19.63
2023-05-09T08:39:13.534Z,19.95
2023-05-09T08:41:40.415Z,20.82
2023-05-09T08:44:07.880Z,20.97
2023-05-09T08:46:39.102Z,21.45
2023-05-09T08:49:08.387Z,20.87
2023-05-09T08:51:38.695Z,21.33
2023-05-09T08:54:05.699Z,21.72
2023-05-09T08:56:32.576Z,21.60
2023-05-09T08:58:59.989Z,22.10
2023-05-09T09:01:28.064Z,23.18
2023-05-09T09:03:56.611Z,24.58
2023-05-09T09:06:26.003Z,25.12
2023-05-09T09:08:56.808Z,27.96
2023-05-09T09:11:24.292Z,28.85
2023-05-09T09:13:56.563Z,30.17
2023-05-09T09:16:25.821Z,30.93
2023-05-09T09:18:55.821Z,31.49
2023-05-09T09:21:26.454Z,30.90
2023-05-09T09:23:56.692Z,33.19
2023-05-09T09:26:24.838Z,31.70
2023-05-09T09:28:51.650Z,32.83
2023-05-09T09:31:22.347Z,33.36
2023-05-09T09:33:49.559Z,34.73
2023-05-09T09:36:16.467Z,34.78
2023-05-09T09:38:45.116Z,35.67
2023-05-09T09:41:13.545Z,35.34
2023-05-09T09:43:45.945Z,35.50
2023-05-09T09:46:20.840Z,35.14
2023-05-09T09:48:55.245Z,35.15
2023-05-09T09:51:21.898Z,34.64
2023-05-09T09:53:49.018Z,35.51
2023-05-09T09:56:16.131Z,35.47
2023-05-09T09:58:42.805Z,35.20
2023-05-09T10:01:11.237Z,36.11
2023-05-09T10:03:45.576Z,35.62
2023-05-09T10:06:14.817Z,35.08
2023-05-09T10:08:42.437Z,35.36
2023-05-09T10:11:10.764Z,35.01
2023-05-09T10:13:38.866Z,35.21
2023-05-09T10:16:08.799Z,35.52
2023-05-09T10:18:36.327Z,35.64
2023-05-09T10:21:05.410Z,35.62
2023-05-09T10:23:37.452Z,35.59
2023-05-09T10:26:27.790Z,35.91
2023-05-09T10:28:57.287Z,35.73
2023-05-09T10:31:29.694Z,35.54
2023-05-09T10:33:57.017Z,35.39
2023-05-09T10:36:26.730Z,35.03
2023-05-09T10:38:55.389Z,34.89
2023-05-09T10:41:24.623Z,35.01
2023-05-09T10:43:52.571Z,35.25
2023-05-09T10:46:20.053Z,34.95
2023-05-09T10:48:49.292Z,35.09
2023-05-09T10:51:17.267Z,34.83
2023-05-09T10:53:46.947Z,34.87
2023-05-09T10:56:33.291Z,34.15
2023-05-09T10:59:00.912Z,34.17
2023-05-09T11:01:35.478Z,33.99
2023-05-09T11:04:14.711Z,33.94
2023-05-09T11:06:45.688Z,33.18
2023-05-09T11:09:41.458Z,33.27
2023-05-09T11:12:14.001Z,33.63
2023-05-09T11:14:45.069Z,33.23
2023-05-09T11:17:13.841Z,33.23
2023-05-09T11:19:46.533Z,33.13
2023-05-09T11:22:20.481Z,33.42
2023-05-09T11:24:51.501Z,33.28
2023-05-09T11:27:29.696Z,33.13
2023-05-09T11:29:58.896Z,33.36
2023-05-09T11:32:32.178Z,32.65
2023-05-09T11:35:19.596Z,32.15
2023-05-09T11:38:00.468Z,32.42
2023-05-09T11:40:28.729Z,32.67
2023-05-09T11:42:58.720Z,32.26
2023-05-09T11:45:31.673Z,32.11
2023-05-09T11:47:59.390Z,31.87
2023-05-09T11:50:27.117Z,32.29
2023-05-09T11:52:54.402Z,31.90
2023-05-09T11:55:23.108Z,31.29
2023-05-09T11:57:52.926Z,31.28
2023-05-09T12:00:27.063Z,30.30
2023-05-09T12:02:54.353Z,30.83
2023-05-09T12:05:23.202Z,30.98
2023-05-09T12:07:50.504Z,31.07
2023-05-09T12:10:21.065Z,31.36
2023-05-09T12:12:50.351Z,31.85
2023-05-09T12:15:18.861Z,31.21
2023-05-09T12:17:50.450Z,31.58
2023-05-09T12:20:19.397Z,31.61
2023-05-09T12:22:55.107Z,31.25
2023-05-09T12:25:22.660Z,31.65
2023-05-09T12:27:49.438Z,31.63
2023-05-09T12:30:18.748Z,31.66
2023-05-09T12:32:46.721Z,31.90
2023-05-09T12:35:13.881Z,32.18
2023-05-09T12:37:40.865Z,32.13
2023-05-09T12:40:13.050Z,32.09
2023-05-09T12:42:44.034Z,32.14
2023-05-09T12:45:11.503Z,31.82
2023-05-09T12:47:39.251Z,31.07
2023-05-09T12:50:07.147Z,30.61
2023-05-09T12:52:58.406Z,30.58
2023-05-09T12:55:29.312Z,30.82
2023-05-09T12:58:01.851Z,30.93
2023-05-09T13:00:29.308Z,31.08
2023-05-09T13:02:57.242Z,30.85
2023-05-09T13:05:24.477Z,31.16
2023-05-09T13:07:52.724Z,31.30
2023-05-09T13:10:29.027Z,31.14
2023-05-09T13:12:56.022Z,31.06
2023-05-09T13:15:24.203Z,31.21
2023-05-09T13:17:52.478Z,31.44
2023-05-09T13:20:19.736Z,31.76
2023-05-09T13:22:46.893Z,31.74
2023-05-09T13:25:14.129Z,31.69
2023-05-09T13:27:41.060Z,31.41
2023-05-09T13:30:08.891Z,31.60
2023-05-09T13:32:37.502Z,31.54
2023-05-09T13:35:06.886Z,31.79
2023-05-09T13:37:35.264Z,32.29
2023-05-09T13:40:02.759Z,32.00
2023-05-09T13:42:29.454Z,32.18
2023-05-09T13:44:56.329Z,31.78
2023-05-09T13:47:23.077Z,31.80
2023-05-09T13:49:49.792Z,31.82
2023-05-09T13:52:16.559Z,31.93
2023-05-09T13:54:43.751Z,31.59
2023-05-09T13:57:11.253Z,31.77
2023-05-09T13:59:38.113Z,31.84
2023-05-09T14:02:05.200Z,31.92
2023-05-09T14:04:32.131Z,31.40
2023-05-09T14:07:00.071Z,31.34
2023-05-09T14:09:27.662Z,31.32
2023-05-09T14:11:55.954Z,31.19
2023-05-09T14:14:25.133Z,30.95
2023-05-09T14:16:52.165Z,30.89
2023-05-09T14:19:19.134Z,30.75
2023-05-09T14:21:47.432Z,30.45
2023-05-09T14:24:16.296Z,30.65
2023-05-09T14:26:43.854Z,30.82
2023-05-09T14:29:11.181Z,31.12
2023-05-09T14:31:38.856Z,31.11
2023-05-09T14:34:06.710Z,31.10
2023-05-09T14:36:33.366Z,30.86
2023-05-09T14:39:00.176Z,30.80
2023-05-09T14:41:27.017Z,30.54
2023-05-09T14:43:54.071Z,30.49
2023-05-09T14:46:20.916Z,30.33
2023-05-09T14:48:47.657Z,30.30
2023-05-09T14:51:14.441Z,29.99
2023-05-09T14:53:42.161Z,30.35
2023-05-09T14:56:11.517Z,30.40
2023-05-09T14:58:38.484Z,30.52
2023-05-09T15:01:05.403Z,30.68
2023-05-09T15:03:33.127Z,30.05
2023-05-09T15:05:59.930Z,29.96
2023-05-09T15:08:27.241Z,29.53
2023-05-09T15:10:58.376Z,29.65
2023-05-09T15:13:25.195Z,29.85
2023-05-09T15:15:52.549Z,29.47
2023-05-09T15:18:22.112Z,29.23
2023-05-09T15:20:48.990Z,29.51
2023-05-09T15:23:15.727Z,29.50
2023-05-09T15:25:43.257Z,29.75
2023-05-09T15:28:09.950Z,29.71
2023-05-09T15:30:38.938Z,29.87
2023-05-09T15:33:07.958Z,29.84
2023-05-09T15:35:35.138Z,30.01
2023-05-09T15:38:03.120Z,30.11
2023-05-09T15:40:31.204Z,29.86
2023-05-09T15:42:58.556Z,29.72
2023-05-09T15:45:25.459Z,29.27
2023-05-09T15:47:52.772Z,29.56
2023-05-09T15:50:19.590Z,29.85
2023-05-09T15:52:46.344Z,30.00
2023-05-09T15:55:13.287Z,30.01
2023-05-09T15:57:40.133Z,30.18
2023-05-09T16:00:07.471Z,30.26
2023-05-09T16:02:34.245Z,30.28
2023-05-09T16:05:01.182Z,30.20
2023-05-09T16:07:32.145Z,30.01
2023-05-09T16:10:00.065Z,30.17
2023-05-09T16:12:33.116Z,30.12
2023-05-09T16:15:01.096Z,30.41
2023-05-09T16:17:28.289Z,30.56
2023-05-09T16:19:57.952Z,30.46
2023-05-09T16:22:25.052Z,30.55
2023-05-09T16:24:52.917Z,30.39
2023-05-09T16:27:20.281Z,30.56
2023-05-09T16:29:46.949Z,30.46
2023-05-09T16:32:13.724Z,30.45
2023-05-09T16:34:43.469Z,30.51
2023-05-09T16:37:10.304Z,30.64
2023-05-09T16:39:38.103Z,30.74
2023-05-09T16:42:05.652Z,30.96
2023-05-09T16:44:32.395Z,30.95
2023-05-09T16:46:59.050Z,30.62
2023-05-09T16:49:25.830Z,30.90
2023-05-09T16:51:52.577Z,31.08
2023-05-09T16:54:19.383Z,30.66
2023-05-09T16:56:46.596Z,30.69
2023-05-09T16:59:13.478Z,30.96
2023-05-09T17:01:40.959Z,30.95
2023-05-09T17:04:09.014Z,30.87
2023-05-09T17:06:35.818Z,30.62
2023-05-09T17:09:02.731Z,30.92
2023-05-09T17:11:30.466Z,31.17
2023-05-09T17:13:57.227Z,31.03
2023-05-09T17:16:24.039Z,31.40
2023-05-09T17:21:17.141Z,31.34
2023-05-09T17:23:44.008Z,31.71
2023-05-09T17:26:10.939Z,31.86
2023-05-09T17:28:37.772Z,32.05
2023-05-09T17:31:04.613Z,32.12
2023-05-09T17:33:31.542Z,32.25
2023-05-09T17:36:00.167Z,32.40
2023-05-09T17:38:26.945Z,32.35
2023-05-09T17:40:54.900Z,32.65
2023-05-09T17:43:22.492Z,32.59
2023-05-09T17:45:52.592Z,32.79
2023-05-09T17:48:19.948Z,32.65
2023-05-09T17:50:47.477Z,32.81
2023-05-09T17:53:14.245Z,32.82
2023-05-09T17:55:41.997Z,32.79
2023-05-09T17:58:09.490Z,33.04
2023-05-09T18:00:36.672Z,32.82
2023-05-09T18:03:04.223Z,32.98
2023-05-09T18:05:31.092Z,32.95
2023-05-09T18:07:59.420Z,33.10
2023-05-09T18:10:26.379Z,33.26
2023-05-09T18:12:53.093Z,33.32
2023-05-09T18:15:19.900Z,33.25
2023-05-09T18:17:50.478Z,33.44
2023-05-09T18:20:17.508Z,33.56
2023-05-09T18:22:44.653Z,33.57
2023-05-09T18:25:11.612Z,33.52
2023-05-09T18:27:38.733Z,33.46
2023-05-09T18:30:06.864Z,33.85
2023-05-09T18:32:33.704Z,33.96
2023-05-09T18:35:00.369Z,34.08
2023-05-09T18:37:28.339Z,34.38
2023-05-09T18:39:55.012Z,34.48
2023-05-09T18:42:22.323Z,34.44
2023-05-09T18:44:49.372Z,34.67
2023-05-09T18:47:16.197Z,34.85
2023-05-09T18:49:43.976Z,34.98
2023-05-09T18:52:11.104Z,34.86
2023-05-09T18:54:38.287Z,35.11
2023-05-09T18:57:05.168Z,35.50
2023-05-09T18:59:32.031Z,35.08
2023-05-09T19:01:58.736Z,35.21
2023-05-09T19:04:25.979Z,35.31
2023-05-09T19:06:52.787Z,35.41
2023-05-09T19:09:19.530Z,35.68
2023-05-09T19:11:48.847Z,35.85
2023-05-09T19:14:18.247Z,35.82
2023-05-09T19:16:44.937Z,35.83
2023-05-09T19:19:11.715Z,35.78
2023-05-09T19:21:38.622Z,36.11
2023-05-09T19:24:07.194Z,36.23
2023-05-09T19:26:34.396Z,36.26
2023-05-09T19:29:04.153Z,36.23
2023-05-09T19:31:31.824Z,37.43
2023-05-09T19:33:58.808Z,36.60
2023-05-09T19:36:25.495Z,37.15
2023-05-09T19:38:55.052Z,37.10
2023-05-09T19:41:21.845Z,37.53
2023-05-09T19:43:50.813Z,37.39
2023-05-09T19:46:18.707Z,37.69
2023-05-09T19:48:45.961Z,37.61
2023-05-09T19:51:14.907Z,37.71
2023-05-09T19:53:43.282Z,38.16
2023-05-09T19:56:10.208Z,38.05
2023-05-09T19:58:37.142Z,38.26
2023-05-09T20:01:05.280Z,38.42
2023-05-09T20:03:32.233Z,38.38
2023-05-09T20:05:59.101Z,38.71
2023-05-09T20:08:26.086Z,38.69
2023-05-09T20:10:53.274Z,38.81
2023-05-09T20:13:20.555Z,38.82
2023-05-09T20:15:47.872Z,39.16
2023-05-09T20:18:16.416Z,39.58
2023-05-09T20:20:43.497Z,39.02
2023-05-09T20:23:10.315Z,39.10
2023-05-09T20:25:37.111Z,39.13
2023-05-09T20:28:03.837Z,39.21
2023-05-09T20:30:30.640Z,39.60
2023-05-09T20:33:00.047Z,39.69
2023-05-09T20:35:26.777Z,39.80
2023-05-09T20:37:53.513Z,39.66
2023-05-09T20:40:20.369Z,39.69
2023-05-09T20:42:47.301Z,39.87
2023-05-09T20:45:14.207Z,39.93
2023-05-09T20:47:40.974Z,40.10
2023-05-09T20:50:08.358Z,40.03
2023-05-09T20:52:35.534Z,40.17
2023-05-09T20:55:02.349Z,40.09
2023-05-09T20:57:29.130Z,40.27
2023-05-09T20:59:55.826Z,40.12
2023-05-09T21:02:22.744Z,40.37
2023-05-09T21:04:49.456Z,40.39
2023-05-09T21:07:19.261Z,40.21
2023-05-09T21:09:50.048Z,40.13
2023-05-09T21:12:17.428Z,40.39
2023-05-09T21:14:44.922Z,40.52
2023-05-09T21:17:13.082Z,40.37
2023-05-09T21:19:39.877Z,40.57
2023-05-09T21:22:07.130Z,40.58
2023-05-09T21:24:35.206Z,40.64
2023-05-09T21:27:01.985Z,40.68
2023-05-09T21:29:28.662Z,40.75
2023-05-09T21:31:55.783Z,40.67
2023-05-09T21:34:22.566Z,40.70
2023-05-09T21:36:49.260Z,40.67
2023-05-09T21:39:15.954Z,41.00
2023-05-09T21:41:43.008Z,40.63
2023-05-09T21:44:12.095Z,40.90
2023-05-09T21:46:39.058Z,40.94
2023-05-09T21:49:05.989Z,40.87
2023-05-09T21:51:33.597Z,41.03
2023-05-09T21:54:01.275Z,41.10
2023-05-09T21:56:28.180Z,41.39
2023-05-09T21:58:55.733Z,41.53
2023-05-09T22:01:22.580Z,41.65
2023-05-09T22:03:49.577Z,41.71
2023-05-09T22:06:16.341Z,41.36
2023-05-09T22:08:43.094Z,41.67
2023-05-09T22:11:10.215Z,41.38
2023-05-09T22:13:37.706Z,41.61
2023-05-09T22:16:05.010Z,41.64
2023-05-09T22:18:31.980Z,41.75
2023-05-09T22:20:59.051Z,41.66
2023-05-09T22:23:25.886Z,41.80
2023-05-09T22:25:54.261Z,42.05
2023-05-09T22:28:21.016Z,42.02
2023-05-09T22:30:47.749Z,41.90
2023-05-09T22:33:14.459Z,42.09
2023-05-09T22:35:41.197Z,41.96
2023-05-09T22:38:07.906Z,42.16
2023-05-09T22:40:34.734Z,42.30
2023-05-09T22:43:01.502Z,42.40
2023-05-09T22:45:28.213Z,42.48
2023-05-09T22:47:55.348Z,42.49
2023-05-09T22:50:22.077Z,43.20
2023-05-09T22:52:48.813Z,42.75
2023-05-09T22:55:15.578Z,43.15
2023-05-09T22:57:42.354Z,42.62
2023-05-09T23:00:10.480Z,43.03
2023-05-09T23:02:37.637Z,43.33
2023-05-09T23:05:04.619Z,43.21
2023-05-09T23:07:33.095Z,43.88
2023-05-09T23:09:59.858Z,43.35
2023-05-09T23:12:26.687Z,43.37
2023-05-09T23:14:53.428Z,43.53
2023-05-09T23:17:20.112Z,43.37
2023-05-09T23:19:47.126Z,43.64
2023-05-09T23:22:13.801Z,43.47
2023-05-09T23:24:40.517Z,43.87
2023-05-09T23:27:07.193Z,43.71
2023-05-09T23:29:33.944Z,44.27
2023-05-09T23:32:00.661Z,43.79
2023-05-09T23:34:27.333Z,43.71
2023-05-09T23:36:54.157Z,43.73
2023-05-09T23:39:20.909Z,44.26
2023-05-09T23:41:47.683Z,44.69
2023-05-09T23:44:14.357Z,44.89
2023-05-09T23:46:41.106Z,44.42
2023-05-09T23:49:10.772Z,44.29
2023-05-09T23:51:40.038Z,44.57
2023-05-09T23:54:07.498Z,44.78
2023-05-09T23:56:34.160Z,44.94
2023-05-09T23:59:03.489Z,45.34
